Big Bear Station Historical Data
Daily Summary for February 18, 2019 Units:  English    Metric   Both
Next Day »
Daily Weekly Monthly Yearly Custom
  High: Low: Average:
Temperature: 29.7 °F 12.4 °F 19 °F
Dew Point: 20.5 °F 11.0 °F 14.4 °F
Humidity: 95% 55% 83%
Wind Speed: 7.3mph 0.0mph 2.1mph
Wind Gust: -999.0mph - -
Wind- - WNW
Pressure: 23.34 in 23.23 in -
Precipitation: 0.00 in    
Historical Graphs
 
 
Tabular Data for February 18, 2019
Time Temperature Dew Point Pressure Wind Wind Speed Wind Gust Humidity Rainfall Rate (Hourly)
00:11 16.9 °F 14.7 °F 23.23 in NNW 4.7 mph -999.0 mph 91% 0.00 in
00:26 16.9 °F 14.5 °F 23.23 in North 7.3 mph -999.0 mph 90% 0.00 in
00:41 16.9 °F 14.2 °F 23.23 in NNW 6.3 mph -999.0 mph 89% 0.00 in
00:56 16.7 °F 14.8 °F 23.23 in WNW 6.8 mph -999.0 mph 92% 0.00 in
01:11 16.2 °F 14.3 °F 23.24 in West 3.7 mph -999.0 mph 92% 0.00 in
01:27 15.6 °F 13.4 °F 23.24 in NW 6.3 mph -999.0 mph 91% 0.00 in
01:42 15.1 °F 13.2 °F 23.24 in NNE 1.7 mph -999.0 mph 92% 0.00 in
01:57 14.5 °F 12.6 °F 23.24 in SSW 2.7 mph -999.0 mph 92% 0.00 in
02:12 13.8 °F 11.9 °F 23.24 in Calm   -999.0 mph 92% 0.00 in
02:28 13.5 °F 11.9 °F 23.24 in Calm   -999.0 mph 93% 0.00 in
02:43 13.5 °F 11.9 °F 23.24 in Calm   -999.0 mph 93% 0.00 in
02:58 13.1 °F 11.5 °F 23.24 in Calm   -999.0 mph 93% 0.00 in
03:13 13.3 °F 11.7 °F 23.24 in Calm   -999.0 mph 93% 0.00 in
03:28 12.9 °F 11.3 °F 23.23 in Calm   -999.0 mph 93% 0.00 in
03:44 12.6 °F 11.0 °F 23.23 in Calm   -999.0 mph 93% 0.00 in
03:59 12.4 °F 11.0 °F 23.23 in Calm   -999.0 mph 94% 0.00 in
04:15 13.5 °F 12.1 °F 23.23 in Calm   -999.0 mph 94% 0.00 in
04:30 14.5 °F 13.1 °F 23.23 in Calm   -999.0 mph 94% 0.00 in
04:45 14.9 °F 13.7 °F 23.24 in Calm   -999.0 mph 95% 0.00 in
05:00 14.9 °F 13.7 °F 23.24 in Calm   -999.0 mph 95% 0.00 in
05:15 14.5 °F 13.1 °F 23.24 in Calm   -999.0 mph 94% 0.00 in
05:31 14.2 °F 12.8 °F 23.24 in Calm   -999.0 mph 94% 0.00 in
05:46 14.4 °F 13.0 °F 23.24 in Calm   -999.0 mph 94% 0.00 in
06:01 14.2 °F 12.8 °F 23.24 in Calm   -999.0 mph 94% 0.00 in
06:16 14.0 °F 12.6 °F 23.25 in Calm   -999.0 mph 94% 0.00 in
06:31 14.2 °F 13.0 °F 23.25 in Calm   -999.0 mph 95% 0.00 in
06:47 14.0 °F 12.6 °F 23.25 in Calm   -999.0 mph 94% 0.00 in
07:02 13.8 °F 12.4 °F 23.26 in Calm   -999.0 mph 94% 0.00 in
07:17 13.8 °F 12.4 °F 23.27 in Calm   -999.0 mph 94% 0.00 in
07:32 14.7 °F 13.3 °F 23.27 in Calm   -999.0 mph 94% 0.00 in
07:48 16.0 °F 14.6 °F 23.27 in Calm   -999.0 mph 94% 0.00 in
08:03 17.8 °F 15.9 °F 23.28 in Calm   -999.0 mph 92% 0.00 in
08:18 19.9 °F 17.7 °F 23.28 in Calm   -999.0 mph 91% 0.00 in
08:33 20.5 °F 17.8 °F 23.29 in Calm   -999.0 mph 89% 0.00 in
08:48 20.8 °F 18.1 °F 23.29 in Calm   -999.0 mph 89% 0.00 in
09:04 22.1 °F 18.6 °F 23.30 in Calm   -999.0 mph 86% 0.00 in
09:19 23.0 °F 19.2 °F 23.30 in Calm   -999.0 mph 85% 0.00 in
09:34 23.9 °F 20.0 °F 23.30 in NW 5.3 mph -999.0 mph 85% 0.00 in
09:49 23.4 °F 18.7 °F 23.30 in NNW 2.2 mph -999.0 mph 82% 0.00 in
10:04 25.5 °F 20.5 °F 23.30 in NNW 2.7 mph -999.0 mph 81% 0.00 in
10:20 27.3 °F 20.1 °F 23.30 in SSW 4.7 mph -999.0 mph 74% 0.00 in
10:35 28.4 °F 19.5 °F 23.30 in North 2.2 mph -999.0 mph 69% 0.00 in
10:52 27.1 °F 17.6 °F 23.30 in NW 4.7 mph -999.0 mph 67% 0.00 in
11:07 26.8 °F 15.9 °F 23.30 in NW 3.7 mph -999.0 mph 63% 0.00 in
11:23 27.3 °F 14.9 °F 23.30 in NNW 4.2 mph -999.0 mph 59% 0.00 in
11:38 26.4 °F 14.4 °F 23.30 in NNW 6.8 mph -999.0 mph 60% 0.00 in
11:53 28.0 °F 13.9 °F 23.30 in NE 2.7 mph -999.0 mph 55% 0.00 in
12:08 27.9 °F 16.2 °F 23.30 in NW 5.8 mph -999.0 mph 61% 0.00 in
12:23 29.7 °F 16.3 °F 23.30 in NNW 5.3 mph -999.0 mph 57% 0.00 in
12:39 28.9 °F 15.2 °F 23.29 in NNE 4.2 mph -999.0 mph 56% 0.00 in
12:54 27.7 °F 15.6 °F 23.29 in NNW 2.7 mph -999.0 mph 60% 0.00 in
13:09 27.3 °F 14.9 °F 23.28 in North 3.2 mph -999.0 mph 59% 0.00 in
13:24 25.7 °F 13.7 °F 23.28 in NNW 3.7 mph -999.0 mph 60% 0.00 in
13:39 26.2 °F 16.4 °F 23.28 in NE 5.8 mph -999.0 mph 66% 0.00 in
13:55 26.4 °F 15.9 °F 23.28 in NNW 6.8 mph -999.0 mph 64% 0.00 in
14:11 27.3 °F 17.4 °F 23.28 in NW 5.8 mph -999.0 mph 66% 0.00 in
14:26 25.9 °F 16.8 °F 23.28 in NNW 4.2 mph -999.0 mph 68% 0.00 in
14:41 26.8 °F 18.0 °F 23.28 in North 6.3 mph -999.0 mph 69% 0.00 in
14:56 24.1 °F 16.1 °F 23.28 in NW 4.7 mph -999.0 mph 71% 0.00 in
15:12 25.0 °F 16.9 °F 23.28 in NNW 5.3 mph -999.0 mph 71% 0.00 in
15:27 24.6 °F 15.5 °F 23.28 in NW 4.7 mph -999.0 mph 68% 0.00 in
15:42 24.4 °F 15.4 °F 23.28 in NW 4.7 mph -999.0 mph 68% 0.00 in
15:58 24.4 °F 15.7 °F 23.28 in North 5.8 mph -999.0 mph 69% 0.00 in
16:13 21.9 °F 18.4 °F 23.28 in NW 5.8 mph -999.0 mph 86% 0.00 in
16:28 20.5 °F 17.5 °F 23.28 in NW 4.2 mph -999.0 mph 88% 0.00 in
16:43 20.8 °F 15.6 °F 23.28 in Calm   -999.0 mph 80% 0.00 in
16:58 20.8 °F 15.6 °F 23.28 in Calm   -999.0 mph 80% 0.00 in
17:14 19.9 °F 15.6 °F 23.29 in North 3.2 mph -999.0 mph 83% 0.00 in
17:29 19.8 °F 15.5 °F 23.29 in NNE 2.7 mph -999.0 mph 83% 0.00 in
17:44 19.0 °F 15.0 °F 23.29 in Calm   -999.0 mph 84% 0.00 in
18:00 18.0 °F 14.5 °F 23.29 in Calm   -999.0 mph 86% 0.00 in
18:15 19.6 °F 13.9 °F 23.30 in North 4.7 mph -999.0 mph 78% 0.00 in
18:30 19.6 °F 13.9 °F 23.30 in WNW 3.7 mph -999.0 mph 78% 0.00 in
18:45 19.0 °F 13.6 °F 23.31 in NNW 2.7 mph -999.0 mph 79% 0.00 in
19:01 18.1 °F 13.5 °F 23.31 in Calm   -999.0 mph 82% 0.00 in
19:16 16.9 °F 12.9 °F 23.31 in Calm   -999.0 mph 84% 0.00 in
19:31 16.0 °F 12.3 °F 23.31 in Calm   -999.0 mph 85% 0.00 in
19:46 15.6 °F 12.4 °F 23.31 in Calm   -999.0 mph 87% 0.00 in
20:02 15.6 °F 12.7 °F 23.31 in Calm   -999.0 mph 88% 0.00 in
20:17 15.4 °F 12.5 °F 23.32 in Calm   -999.0 mph 88% 0.00 in
20:32 15.6 °F 12.9 °F 23.32 in Calm   -999.0 mph 89% 0.00 in
20:47 15.3 °F 12.9 °F 23.33 in Calm   -999.0 mph 90% 0.00 in
21:02 14.7 °F 12.6 °F 23.33 in Calm   -999.0 mph 91% 0.00 in
21:18 14.0 °F 12.1 °F 23.33 in Calm   -999.0 mph 92% 0.00 in
21:33 13.6 °F 11.7 °F 23.33 in Calm   -999.0 mph 92% 0.00 in
21:48 13.3 °F 11.7 °F 23.33 in Calm   -999.0 mph 93% 0.00 in
22:03 13.3 °F 11.7 °F 23.33 in Calm   -999.0 mph 93% 0.00 in
22:18 13.1 °F 11.5 °F 23.33 in Calm   -999.0 mph 93% 0.00 in
22:34 12.9 °F 11.3 °F 23.33 in Calm   -999.0 mph 93% 0.00 in
22:49 16.7 °F 13.0 °F 23.33 in WNW 3.7 mph -999.0 mph 85% 0.00 in
23:04 16.7 °F 13.0 °F 23.33 in East 1.1 mph -999.0 mph 85% 0.00 in
23:19 15.4 °F 12.2 °F 23.33 in NW 1.7 mph -999.0 mph 87% 0.00 in
23:34 15.3 °F 11.9 °F 23.34 in Calm   -999.0 mph 86% 0.00 in
23:50 16.5 °F 12.5 °F 23.34 in NNW 4.7 mph -999.0 mph 84% 0.00 in
Big Bear CA Weather